Anthon, Iowa
Current Conditions -  °F | °C
As of 7:52 AM on Monday 24 Nov 2014 (Local Time) from KSUX Reporting Station
Overcast Overcast  
Wind Chill:   Ceiling: 2300
Heat Index: 25°   Visibility: 10mi
Dew Point: 16°   Wind: 26mph
Humidity: 69%   Direction: 320°NW
Pressure: 29.63"   Gusts: 35mph
Location:  42.39°N, 95.87°W
Report Text: KSUX 241352Z 32023G30KT 10SM OVC023 M04/M09 A2963 RMK AO2 PK WND 33033/1337 SLP043 T10391089
Loading
Personal Weather Stations






























Interactive Weather Map New forecast layout! Learn more

10-Day Weather Forecast

Advertisements
Track Severe Weather on mobile